createdAt,value
2018-09-30T00:00:11.961Z,6.80
2018-09-30T00:02:39.525Z,6.80
2018-09-30T00:05:07.142Z,6.70
2018-09-30T00:07:34.733Z,6.70
2018-09-30T00:10:02.306Z,6.60
2018-09-30T00:12:29.868Z,6.60
2018-09-30T00:14:57.420Z,6.60
2018-09-30T00:17:25.033Z,6.60
2018-09-30T00:19:52.602Z,6.60
2018-09-30T00:22:20.188Z,6.50
2018-09-30T00:24:53.344Z,6.50
2018-09-30T00:27:21.985Z,6.40
2018-09-30T00:29:49.529Z,6.40
2018-09-30T00:32:17.107Z,6.40
2018-09-30T00:34:44.661Z,6.40
2018-09-30T00:37:12.287Z,6.40
2018-09-30T00:39:39.877Z,6.40
2018-09-30T00:42:07.469Z,6.40
2018-09-30T00:44:35.005Z,6.30
2018-09-30T00:47:02.585Z,6.20
2018-09-30T00:49:30.157Z,6.10
2018-09-30T00:51:57.741Z,6.10
2018-09-30T00:54:25.840Z,6.00
2018-09-30T00:56:53.418Z,6.00
2018-09-30T00:59:20.965Z,6.10
2018-09-30T01:01:48.546Z,6.10
2018-09-30T01:04:16.077Z,6.10
2018-09-30T01:06:43.660Z,6.10
2018-09-30T01:09:13.826Z,6.10
2018-09-30T01:11:41.979Z,6.10
2018-09-30T01:14:09.782Z,6.10
2018-09-30T01:16:37.377Z,6.10
2018-09-30T01:19:05.137Z,6.00
2018-09-30T01:21:32.752Z,5.90
2018-09-30T01:24:00.311Z,5.90
2018-09-30T01:26:41.701Z,6.00
2018-09-30T01:29:09.255Z,6.00
2018-09-30T01:31:36.824Z,6.00
2018-09-30T01:34:04.377Z,6.00
2018-09-30T01:36:31.958Z,6.00
2018-09-30T01:39:00.026Z,6.00
2018-09-30T01:41:27.901Z,5.90
2018-09-30T01:43:55.529Z,5.90
2018-09-30T01:46:23.137Z,5.90
2018-09-30T01:48:50.720Z,5.80
2018-09-30T01:51:18.306Z,5.80
2018-09-30T01:53:45.893Z,5.80
2018-09-30T01:56:13.821Z,5.70
2018-09-30T01:58:41.401Z,5.70
2018-09-30T02:01:09.015Z,5.70
2018-09-30T02:03:36.589Z,5.70
2018-09-30T02:06:04.154Z,5.60
2018-09-30T02:08:32.527Z,5.50
2018-09-30T02:11:00.130Z,5.40
2018-09-30T02:13:27.689Z,5.50
2018-09-30T02:15:55.257Z,5.50
2018-09-30T02:18:22.825Z,5.50
2018-09-30T02:20:50.371Z,5.50
2018-09-30T02:23:17.933Z,5.50
2018-09-30T02:25:45.524Z,5.50
2018-09-30T02:28:13.092Z,5.40
2018-09-30T02:30:40.643Z,5.40
2018-09-30T02:33:08.225Z,5.30
2018-09-30T02:35:35.821Z,5.30
2018-09-30T02:38:03.384Z,5.40
2018-09-30T02:40:30.962Z,5.30
2018-09-30T02:43:01.229Z,5.20
2018-09-30T02:45:28.776Z,5.20
2018-09-30T02:47:56.356Z,5.30
2018-09-30T02:50:23.921Z,5.20
2018-09-30T02:52:51.521Z,5.10
2018-09-30T02:55:19.085Z,5.20
2018-09-30T02:57:46.914Z,5.10
2018-09-30T03:00:14.517Z,5.10
2018-09-30T03:02:42.074Z,5.10
2018-09-30T03:05:09.612Z,5.10
2018-09-30T03:07:42.700Z,5.10
2018-09-30T03:10:10.274Z,5.10
2018-09-30T03:12:37.857Z,5.10
2018-09-30T03:15:05.498Z,5.10
2018-09-30T03:17:33.101Z,5.10
2018-09-30T03:20:00.675Z,5.10
2018-09-30T03:22:28.261Z,5.10
2018-09-30T03:24:55.865Z,5.10
2018-09-30T03:27:23.412Z,5.00
2018-09-30T03:29:50.970Z,5.00
2018-09-30T03:32:18.574Z,4.90
2018-09-30T03:34:46.157Z,4.90
2018-09-30T03:37:13.715Z,4.90
2018-09-30T03:39:41.407Z,4.80
2018-09-30T03:42:08.857Z,4.80
2018-09-30T03:44:36.866Z,4.80
2018-09-30T03:47:04.604Z,4.70
2018-09-30T03:49:32.208Z,4.80
2018-09-30T03:51:59.793Z,4.70
2018-09-30T03:54:27.369Z,4.80
2018-09-30T03:56:55.229Z,4.80
2018-09-30T03:59:22.805Z,4.70
2018-09-30T04:01:50.401Z,4.70
2018-09-30T04:04:17.965Z,4.70
2018-09-30T04:06:45.501Z,4.60
2018-09-30T04:09:13.133Z,4.60
2018-09-30T04:11:40.699Z,4.60
2018-09-30T04:14:08.427Z,4.60
2018-09-30T04:16:36.225Z,4.60
2018-09-30T04:19:03.869Z,4.60
2018-09-30T04:21:31.429Z,4.60
2018-09-30T04:24:05.896Z,4.50
2018-09-30T04:26:33.472Z,4.60
2018-09-30T04:29:01.182Z,4.60
2018-09-30T04:31:28.753Z,4.60
2018-09-30T04:33:56.337Z,4.60
2018-09-30T04:36:23.909Z,4.50
2018-09-30T04:38:51.504Z,4.50
2018-09-30T04:41:19.278Z,4.50
2018-09-30T04:43:46.924Z,4.50
2018-09-30T04:46:14.495Z,4.60
2018-09-30T04:48:42.058Z,4.60
2018-09-30T04:51:09.657Z,4.60
2018-09-30T04:53:37.240Z,4.60
2018-09-30T04:56:04.817Z,4.50
2018-09-30T04:58:32.381Z,4.50
2018-09-30T05:01:00.634Z,4.50
2018-09-30T05:03:28.388Z,4.40
2018-09-30T05:05:57.041Z,4.40
2018-09-30T05:08:24.601Z,4.40
2018-09-30T05:10:52.172Z,4.50
2018-09-30T05:13:19.749Z,4.50
2018-09-30T05:15:47.313Z,4.40
2018-09-30T05:18:14.906Z,4.50
2018-09-30T05:20:42.473Z,4.50
2018-09-30T05:23:12.749Z,4.40
2018-09-30T05:25:41.636Z,4.40
2018-09-30T05:28:13.676Z,4.50
2018-09-30T05:30:41.801Z,4.40
2018-09-30T05:33:10.405Z,4.50
2018-09-30T05:35:45.744Z,4.50
2018-09-30T05:38:14.604Z,4.50
2018-09-30T05:40:43.019Z,4.50
2018-09-30T05:43:10.642Z,4.50
2018-09-30T05:45:38.799Z,4.40
2018-09-30T05:48:09.259Z,4.40
2018-09-30T05:50:40.662Z,4.50
2018-09-30T05:53:11.296Z,4.50
2018-09-30T05:55:38.917Z,4.60
2018-09-30T05:58:07.288Z,4.60
2018-09-30T06:00:35.308Z,4.60
2018-09-30T06:03:03.393Z,4.70
2018-09-30T06:05:31.309Z,4.70
2018-09-30T06:07:59.517Z,4.70
2018-09-30T06:10:27.473Z,4.70
2018-09-30T06:12:55.301Z,4.70
2018-09-30T06:15:23.020Z,4.80
2018-09-30T06:17:51.394Z,4.90
2018-09-30T06:20:19.020Z,4.90
2018-09-30T06:22:46.762Z,5.10
2018-09-30T06:25:14.370Z,5.10
2018-09-30T06:27:42.037Z,5.20
2018-09-30T06:30:09.636Z,5.20
2018-09-30T06:32:37.191Z,5.30
2018-09-30T06:35:04.905Z,5.40
2018-09-30T06:37:32.443Z,5.50
2018-09-30T06:39:59.994Z,5.60
2018-09-30T06:42:27.565Z,5.70
2018-09-30T06:44:56.047Z,5.80
2018-09-30T06:47:24.083Z,5.90
2018-09-30T06:49:51.663Z,6.10
2018-09-30T06:52:19.257Z,6.10
2018-09-30T06:54:48.436Z,6.10
2018-09-30T06:57:16.003Z,6.20
2018-09-30T06:59:45.749Z,6.30
2018-09-30T07:02:14.625Z,6.30
2018-09-30T07:04:43.205Z,6.40
2018-09-30T07:07:10.850Z,6.50
2018-09-30T07:09:38.641Z,6.60
2018-09-30T07:12:06.269Z,6.80
2018-09-30T07:14:33.889Z,7.00
2018-09-30T07:17:01.571Z,7.00
2018-09-30T07:19:29.058Z,7.00
2018-09-30T07:21:56.624Z,7.10
2018-09-30T07:24:24.427Z,7.30
2018-09-30T07:26:52.011Z,7.40
2018-09-30T07:29:19.529Z,7.50
2018-09-30T07:31:47.512Z,7.60
2018-09-30T07:34:15.081Z,7.70
2018-09-30T07:36:42.790Z,7.80
2018-09-30T07:39:10.933Z,7.90
2018-09-30T07:41:38.505Z,8.10
2018-09-30T07:44:06.405Z,8.10
2018-09-30T07:46:34.421Z,8.20
2018-09-30T07:49:02.605Z,8.50
2018-09-30T07:51:30.294Z,8.60
2018-09-30T07:53:58.372Z,8.60
2018-09-30T07:56:26.154Z,8.70
2018-09-30T07:58:53.753Z,8.90
2018-09-30T08:01:21.337Z,9.00
2018-09-30T08:03:53.479Z,9.20
2018-09-30T08:06:21.076Z,9.30
2018-09-30T08:08:48.637Z,9.30
2018-09-30T08:11:16.274Z,9.50
2018-09-30T08:13:44.029Z,9.50
2018-09-30T08:16:11.561Z,9.70
2018-09-30T08:18:39.225Z,9.80
2018-09-30T08:21:06.904Z,9.90
2018-09-30T08:23:35.205Z,9.90
2018-09-30T08:26:02.745Z,10.00
2018-09-30T08:28:30.296Z,10.10
2018-09-30T08:30:58.173Z,10.20
2018-09-30T08:33:25.780Z,10.40
2018-09-30T08:35:58.764Z,10.50
2018-09-30T08:38:29.061Z,10.60
2018-09-30T08:41:02.185Z,10.80
2018-09-30T08:43:30.417Z,10.90
2018-09-30T08:45:58.880Z,11.00
2018-09-30T08:48:26.735Z,11.20
2018-09-30T08:50:54.541Z,11.20
2018-09-30T08:53:22.529Z,11.30
2018-09-30T08:55:50.111Z,11.60
2018-09-30T08:58:18.281Z,11.70
2018-09-30T09:00:45.829Z,11.70
2018-09-30T09:03:13.408Z,11.70
2018-09-30T09:05:40.961Z,11.90
2018-09-30T09:08:09.417Z,11.90
2018-09-30T09:10:37.133Z,12.10
2018-09-30T09:13:04.695Z,12.30
2018-09-30T09:15:32.320Z,12.40
2018-09-30T09:18:00.305Z,12.50
2018-09-30T09:20:27.932Z,12.70
2018-09-30T09:22:55.526Z,12.80
2018-09-30T09:25:23.166Z,12.80
2018-09-30T09:27:50.745Z,12.80
2018-09-30T09:30:18.489Z,12.80
2018-09-30T09:32:46.156Z,12.90
2018-09-30T09:35:13.781Z,13.00
2018-09-30T09:37:41.526Z,13.10
2018-09-30T09:40:09.984Z,13.30
2018-09-30T09:42:38.017Z,13.40
2018-09-30T09:45:05.830Z,13.50
2018-09-30T09:47:33.480Z,13.50
2018-09-30T09:50:03.630Z,13.70
2018-09-30T09:52:31.218Z,13.80
2018-09-30T09:54:59.021Z,13.80
2018-09-30T09:57:26.576Z,13.90
2018-09-30T09:59:54.117Z,14.10
2018-09-30T10:02:21.926Z,14.10
2018-09-30T10:04:52.465Z,14.10
2018-09-30T10:07:20.153Z,14.20
2018-09-30T10:09:47.745Z,14.30
2018-09-30T10:12:15.544Z,14.40
2018-09-30T10:14:43.355Z,14.40
2018-09-30T10:17:11.287Z,14.50
2018-09-30T10:19:39.065Z,14.40
2018-09-30T10:22:07.743Z,14.40
2018-09-30T10:24:37.402Z,14.50
2018-09-30T10:27:06.347Z,14.60
2018-09-30T10:29:35.140Z,14.70
2018-09-30T10:32:03.848Z,14.50
2018-09-30T10:34:32.912Z,14.70
2018-09-30T10:37:02.355Z,15.00
2018-09-30T10:39:30.505Z,14.80
2018-09-30T10:41:58.567Z,14.90
2018-09-30T10:44:26.477Z,15.00
2018-09-30T10:46:54.960Z,15.10
2018-09-30T10:49:22.470Z,15.10
2018-09-30T10:51:50.716Z,15.20
2018-09-30T10:54:19.197Z,15.40
2018-09-30T10:56:47.351Z,15.60
2018-09-30T10:59:14.897Z,15.70
2018-09-30T11:01:42.437Z,15.70
2018-09-30T11:04:09.997Z,15.80
2018-09-30T11:06:37.657Z,15.70
2018-09-30T11:09:07.225Z,15.80
2018-09-30T11:11:34.891Z,16.00
2018-09-30T11:14:03.263Z,16.20
2018-09-30T11:16:32.858Z,16.20
2018-09-30T11:19:00.545Z,16.30
2018-09-30T11:21:28.197Z,16.00
2018-09-30T11:23:55.789Z,16.20
2018-09-30T11:26:23.431Z,16.30
2018-09-30T11:28:50.956Z,16.50
2018-09-30T11:31:18.581Z,16.60
2018-09-30T11:33:46.133Z,16.60
2018-09-30T11:36:13.722Z,16.80
2018-09-30T11:38:41.388Z,16.90
2018-09-30T11:41:08.951Z,16.90
2018-09-30T11:43:36.509Z,17.10
2018-09-30T11:46:04.050Z,17.20
2018-09-30T11:48:31.615Z,17.20
2018-09-30T11:50:59.182Z,17.20
2018-09-30T11:53:26.741Z,17.00
2018-09-30T11:55:55.197Z,17.10
2018-09-30T11:58:22.749Z,17.10
2018-09-30T12:00:50.296Z,17.00
2018-09-30T12:03:17.854Z,17.20
2018-09-30T12:05:45.411Z,17.20
2018-09-30T12:08:13.043Z,17.30
2018-09-30T12:10:41.205Z,17.60
2018-09-30T12:13:08.768Z,17.60
2018-09-30T12:15:36.293Z,17.80
2018-09-30T12:18:03.854Z,18.10
2018-09-30T12:20:31.397Z,18.20
2018-09-30T12:22:59.002Z,18.20
2018-09-30T12:25:26.606Z,18.20
2018-09-30T12:27:54.210Z,18.30
2018-09-30T12:30:21.746Z,18.40
2018-09-30T12:32:49.386Z,18.50
2018-09-30T12:35:16.970Z,18.40
2018-09-30T12:37:44.531Z,18.40
2018-09-30T12:40:12.091Z,18.40
2018-09-30T12:42:39.666Z,18.20
2018-09-30T12:45:07.275Z,18.30
2018-09-30T12:47:35.173Z,17.90
2018-09-30T12:50:02.741Z,18.00
2018-09-30T12:52:30.297Z,18.30
2018-09-30T12:54:58.596Z,18.50
2018-09-30T12:57:26.141Z,18.80
2018-09-30T12:59:53.716Z,18.90
2018-09-30T13:02:22.661Z,18.80
2018-09-30T13:04:50.240Z,18.60
2018-09-30T13:07:17.769Z,18.40
2018-09-30T13:09:45.333Z,18.80
2018-09-30T13:12:13.405Z,19.10
2018-09-30T13:14:41.417Z,19.40
2018-09-30T13:17:08.997Z,19.40
2018-09-30T13:19:36.593Z,19.70
2018-09-30T13:22:07.926Z,19.90
2018-09-30T13:24:36.656Z,19.60
2018-09-30T13:27:05.924Z,19.60
2018-09-30T13:29:34.987Z,19.90
2018-09-30T13:32:03.888Z,19.80
2018-09-30T13:34:32.422Z,19.70
2018-09-30T13:37:01.258Z,19.80
2018-09-30T13:39:29.694Z,19.90
2018-09-30T13:41:58.304Z,20.30
2018-09-30T13:44:26.782Z,20.40
2018-09-30T13:46:55.431Z,20.60
2018-09-30T13:49:24.414Z,20.60
2018-09-30T13:51:53.005Z,20.30
2018-09-30T13:54:23.088Z,20.40
2018-09-30T13:56:51.693Z,20.70
2018-09-30T13:59:20.832Z,20.80
2018-09-30T14:01:49.980Z,21.40
2018-09-30T14:04:18.317Z,22.00
2018-09-30T14:06:47.119Z,22.40
2018-09-30T14:09:16.020Z,23.00
2018-09-30T14:11:44.556Z,23.90
2018-09-30T14:14:13.215Z,25.00
2018-09-30T14:16:41.924Z,26.90
2018-09-30T14:19:09.460Z,28.50
2018-09-30T14:21:38.985Z,29.20
2018-09-30T14:24:08.160Z,30.80
2018-09-30T14:26:36.823Z,30.20
2018-09-30T14:29:05.583Z,31.20
2018-09-30T14:31:33.280Z,32.00
2018-09-30T14:34:00.981Z,32.70
2018-09-30T14:36:28.500Z,33.50
2018-09-30T14:38:56.121Z,33.40
2018-09-30T14:41:23.750Z,34.10
2018-09-30T14:43:51.274Z,34.90
2018-09-30T14:46:18.833Z,35.00
2018-09-30T14:48:46.419Z,34.20
2018-09-30T14:51:13.970Z,33.50
2018-09-30T14:53:41.494Z,33.40
2018-09-30T14:56:09.092Z,33.10
2018-09-30T14:58:36.650Z,32.70
2018-09-30T15:01:04.233Z,32.70
2018-09-30T15:03:32.458Z,32.30
2018-09-30T15:06:00.171Z,33.80
2018-09-30T15:08:27.738Z,34.30
2018-09-30T15:10:55.297Z,34.30
2018-09-30T15:13:22.905Z,33.00
2018-09-30T15:15:50.534Z,32.10
2018-09-30T15:18:18.078Z,32.30
2018-09-30T15:20:45.637Z,32.80
2018-09-30T15:23:13.620Z,33.00
2018-09-30T15:25:41.213Z,33.10
2018-09-30T15:28:08.769Z,33.10
2018-09-30T15:30:36.324Z,32.50
2018-09-30T15:33:04.041Z,31.50
2018-09-30T15:35:31.565Z,30.90
2018-09-30T15:37:59.117Z,30.80
2018-09-30T15:40:26.770Z,29.90
2018-09-30T15:42:54.317Z,29.60
2018-09-30T15:45:22.543Z,29.80
2018-09-30T15:47:53.131Z,29.80
2018-09-30T15:50:21.077Z,29.60
2018-09-30T15:52:48.797Z,30.00
2018-09-30T15:55:16.377Z,29.70
2018-09-30T15:57:44.005Z,30.10
2018-09-30T16:00:11.553Z,29.60
2018-09-30T16:02:43.504Z,29.60
2018-09-30T16:05:18.656Z,29.60
2018-09-30T16:07:46.250Z,29.30
2018-09-30T16:10:17.022Z,29.80
2018-09-30T16:12:54.334Z,29.80
2018-09-30T16:15:23.706Z,29.20
2018-09-30T16:17:52.036Z,28.10
2018-09-30T16:20:20.065Z,28.00
2018-09-30T16:22:47.706Z,28.50
2018-09-30T16:25:15.242Z,27.90
2018-09-30T16:27:46.728Z,28.20
2018-09-30T16:30:14.245Z,27.20
2018-09-30T16:32:41.788Z,27.40
2018-09-30T16:35:09.370Z,26.70
2018-09-30T16:37:36.982Z,25.90
2018-09-30T16:40:04.589Z,24.70
2018-09-30T16:42:33.911Z,22.60
2018-09-30T16:45:01.538Z,21.00
2018-09-30T16:47:29.218Z,19.60
2018-09-30T16:49:56.804Z,18.60
2018-09-30T16:52:24.506Z,17.90
2018-09-30T16:54:52.026Z,17.30
2018-09-30T16:57:19.856Z,17.00
2018-09-30T16:59:47.405Z,16.90
2018-09-30T17:02:15.025Z,16.60
2018-09-30T17:04:42.991Z,16.30
2018-09-30T17:07:11.203Z,16.20
2018-09-30T17:09:38.763Z,16.10
2018-09-30T17:12:06.413Z,15.90
2018-09-30T17:14:34.062Z,15.60
2018-09-30T17:17:03.514Z,15.50
2018-09-30T17:19:31.094Z,15.20
2018-09-30T17:21:58.669Z,15.00
2018-09-30T22:49:58.577Z,11.30
2018-09-30T22:52:26.165Z,11.30
2018-09-30T22:54:53.741Z,11.30
2018-09-30T22:57:21.867Z,11.30
2018-09-30T22:59:49.435Z,11.20
2018-09-30T23:02:17.053Z,11.20
2018-09-30T23:04:44.713Z,11.20
2018-09-30T23:07:12.405Z,11.20
2018-09-30T23:09:40.035Z,11.20
2018-09-30T23:12:07.587Z,11.20
2018-09-30T23:14:35.169Z,11.30
2018-09-30T23:17:02.781Z,11.20
2018-09-30T23:19:30.365Z,11.10
2018-09-30T23:21:57.926Z,11.10
2018-09-30T23:24:26.200Z,11.10
2018-09-30T23:26:53.725Z,11.10
2018-09-30T23:29:21.285Z,11.10
2018-09-30T23:31:48.828Z,11.00
2018-09-30T23:34:16.444Z,11.00
2018-09-30T23:36:43.982Z,10.90
2018-09-30T23:39:12.565Z,10.90
2018-09-30T23:41:41.038Z,10.90
2018-09-30T23:44:08.950Z,10.90
2018-09-30T23:46:36.480Z,10.90
2018-09-30T23:49:04.457Z,10.90
2018-09-30T23:51:32.809Z,10.90
2018-09-30T23:54:00.406Z,10.90
2018-09-30T23:56:27.925Z,10.90
2018-09-30T23:58:55.476Z,11.00
